Time;durP1;ratioP1;P1;durP2;ratioP2;P2;SDS_P1;SDS_P2;PMS_P1;PMS_P2;Temp;Humidity;BMP_temperature;BMP_pressure;BME280_temperature;BME280_humidity;BME280_pressure;Samples;Min_cycle;Max_cycle;Signal;HPM_P1;HPM_P2
2023/11/04 00:00:15;;;;;;;8.30;5.60;;;;;;;11.84;91.57;97264.66;104730;1274;61336;-25
2023/11/04 00:02:43;;;;;;;9.80;5.80;;;;;;;12.16;90.21;97265.23;104863;1267;61256;-25
2023/11/04 00:12:50;;;;;;;9.70;6.50;;;;;;;12.25;90.91;97265.23;102603;1294;600276;-24
2023/11/04 00:15:19;;;;;;;21.10;6.90;;;;;;;12.31;89.72;97265.30;104789;1271;61190;-24
2023/11/04 00:17:51;;;;;;;13.40;7.70;;;;;;;12.15;90.59;97277.21;104904;1267;61128;-24
2023/11/04 00:20:19;;;;;;;10.80;6.10;;;;;;;11.97;92.10;97270.77;104809;1270;72230;-24
2023/11/04 00:30:28;;;;;;;8.70;5.30;;;;;;;12.18;91.80;97247.77;102682;1292;600152;-26
2023/11/04 00:32:56;;;;;;;8.90;5.10;;;;;;;12.44;90.95;97237.67;104803;1269;61416;-26
2023/11/04 00:35:25;;;;;;;9.90;5.60;;;;;;;12.62;89.48;97247.64;104771;1266;61072;-25
2023/11/04 00:37:52;;;;;;;12.20;5.30;;;;;;;12.54;89.72;97249.13;104703;1264;72250;-25
2023/11/04 00:40:20;;;;;;;12.60;6.20;;;;;;;12.37;90.47;97253.89;104902;1265;74290;-25
2023/11/04 00:42:48;;;;;;;11.40;6.10;;;;;;;12.49;91.07;97273.33;104823;1270;72532;-25
2023/11/04 00:52:54;;;;;;;10.50;5.90;;;;;;;12.52;91.95;97253.02;102570;1293;600728;-24
2023/11/04 01:03:09;;;;;;;9.30;5.50;;;;;;;12.56;92.89;97268.71;102624;1290;600354;-24
2023/11/04 01:13:19;;;;;;;11.40;6.70;;;;;;;12.69;92.53;97264.94;102715;1295;600377;-24
2023/11/04 01:15:47;;;;;;;9.80;6.00;;;;;;;12.83;91.17;97266.05;104910;1267;61187;-24
2023/11/04 01:18:15;;;;;;;12.30;6.30;;;;;;;12.73;91.37;97278.63;104882;1269;61178;-24
2023/11/04 01:20:43;;;;;;;8.90;5.10;;;;;;;12.52;92.83;97287.00;104816;1271;72223;-25
2023/11/04 01:23:10;;;;;;;9.20;5.70;;;;;;;12.70;92.52;97286.03;104788;1272;74330;-24
2023/11/04 01:25:38;;;;;;;11.00;6.50;;;;;;;12.94;90.46;97278.56;104872;1270;71727;-24
2023/11/04 01:28:06;;;;;;;10.70;6.00;;;;;;;12.78;91.05;97297.46;102848;1267;3212667;-24
2023/11/04 01:30:34;;;;;;;12.30;6.00;;;;;;;12.54;92.74;97318.40;105418;1257;61144;-24
2023/11/04 01:33:02;;;;;;;8.20;5.30;;;;;;;12.61;93.11;97335.14;105603;1257;69940;-27
2023/11/04 01:35:30;;;;;;;10.60;6.30;;;;;;;12.88;91.18;97328.55;105573;1261;73278;-24
2023/11/04 01:45:41;;;;;;;6.90;4.90;;;;;;;12.98;90.82;97301.07;102614;1292;600939;-25
2023/11/04 01:48:09;;;;;;;19.40;7.80;;;;;;;12.83;91.19;97295.54;104844;1267;61177;-24
2023/11/04 01:50:37;;;;;;;9.40;4.60;;;;;;;12.65;92.26;97292.69;104840;1264;61212;-25
2023/11/04 02:00:44;;;;;;;12.30;7.10;;;;;;;12.87;91.28;97289.94;102514;1292;600009;-25
2023/11/04 02:03:12;;;;;;;9.30;5.90;;;;;;;12.78;92.44;97309.02;104732;1273;61184;-25
2023/11/04 02:05:40;;;;;;;11.70;5.80;;;;;;;13.07;90.45;97312.99;104746;1269;61198;-27
2023/11/04 02:08:09;;;;;;;9.90;5.30;;;;;;;13.13;89.81;97320.57;104724;1271;72219;-27
2023/11/04 02:10:37;;;;;;;9.50;6.30;;;;;;;12.97;90.59;97309.30;104784;1271;73817;-27
2023/11/04 02:13:05;;;;;;;9.90;5.10;;;;;;;12.81;91.93;97309.34;104712;1272;71347;-26
2023/11/04 02:23:11;;;;;;;9.20;5.40;;;;;;;12.98;90.70;97291.49;102644;1295;600189;-26
2023/11/04 02:25:39;;;;;;;6.70;4.80;;;;;;;12.92;91.41;97285.28;104767;1267;61151;-26
2023/11/04 02:28:07;;;;;;;6.40;4.40;;;;;;;13.15;89.89;97285.01;104897;1267;61148;-27
2023/11/04 02:30:35;;;;;;;11.50;6.50;;;;;;;13.16;89.14;97293.68;105097;1267;72179;-27
2023/11/04 02:33:03;;;;;;;13.90;6.80;;;;;;;13.00;89.53;97289.35;105052;1267;74271;-27
2023/11/04 02:35:31;;;;;;;11.40;4.70;;;;;;;12.77;91.21;97283.64;105213;1267;72639;-27
2023/11/04 02:37:59;;;;;;;10.60;5.40;;;;;;;13.00;90.75;97273.60;102861;1266;3269667;-27
2023/11/04 02:40:26;;;;;;;12.40;6.20;;;;;;;13.10;89.83;97275.24;105386;1263;61163;-27
2023/11/04 02:42:54;;;;;;;11.10;6.20;;;;;;;12.96;90.06;97275.88;105378;1263;72498;-27
2023/11/04 02:45:22;;;;;;;10.30;5.80;;;;;;;12.70;90.87;97285.04;105213;1260;74343;-27
2023/11/04 02:47:50;;;;;;;13.50;5.20;;;;;;;12.77;91.26;97289.85;105384;1263;72606;-27
2023/11/04 02:57:58;;;;;;;12.70;4.90;;;;;;;12.53;92.48;97299.19;102621;1294;600288;-26
2023/11/04 03:00:26;;;;;;;9.90;5.70;;;;;;;12.80;91.30;97314.45;104818;1267;61197;-27
2023/11/04 03:02:54;;;;;;;14.10;6.20;;;;;;;12.88;90.29;97324.22;104675;1273;61169;-26
2023/11/04 03:05:21;;;;;;;10.90;6.00;;;;;;;12.73;90.46;97324.68;104740;1273;72308;-26
2023/11/04 03:08:01;;;;;;;9.30;5.20;;;;;;;12.48;91.81;97323.26;104708;1274;74394;-26
2023/11/04 03:10:30;;;;;;;9.30;4.80;;;;;;;12.48;92.67;97326.63;102162;1272;3320332;-27
2023/11/04 03:12:57;;;;;;;11.30;6.50;;;;;;;12.76;91.30;97322.63;104756;1267;61256;-29
2023/11/04 03:15:26;;;;;;;8.80;5.80;;;;;;;12.77;90.45;97317.42;104843;1270;61098;-26
2023/11/04 03:17:53;;;;;;;12.90;7.20;;;;;;;12.55;91.27;97320.70;104816;1272;70016;-26
2023/11/04 03:20:22;;;;;;;11.00;4.60;;;;;;;12.32;92.46;97319.58;104819;1270;73234;-27
2023/11/04 03:22:50;;;;;;;10.60;4.90;;;;;;;12.59;91.67;97315.02;104830;1267;72491;-27
2023/11/04 03:25:19;;;;;;;11.80;5.90;;;;;;;12.79;90.03;97308.00;104800;1267;61209;-27
2023/11/04 03:27:47;;;;;;;12.50;6.50;;;;;;;12.63;90.66;97311.41;104817;1264;61053;-27
2023/11/04 03:30:15;;;;;;;10.20;6.80;;;;;;;12.39;91.83;97306.56;104778;1271;73007;-27
2023/11/04 03:32:43;;;;;;;8.60;4.90;;;;;;;12.17;93.50;97304.39;104793;1265;74392;-27
2023/11/04 03:35:11;;;;;;;15.70;6.30;;;;;;;12.46;92.97;97305.63;105332;1258;71551;-27
2023/11/04 03:37:39;;;;;;;15.90;6.50;;;;;;;12.64;91.60;97308.92;109080;1257;58906;-28
2023/11/04 03:40:08;;;;;;;10.60;6.70;;;;;;;12.51;91.84;97311.65;109105;1256;60122;-28
2023/11/04 03:42:37;;;;;;;11.50;7.40;;;;;;;12.32;92.40;97321.83;109096;1257;73034;-28
2023/11/04 03:45:06;;;;;;;9.60;4.90;;;;;;;12.10;93.83;97319.95;108983;1257;74342;-28
2023/11/04 03:47:33;;;;;;;8.70;5.30;;;;;;;12.42;93.09;97322.90;109056;1258;72650;-28
2023/11/04 03:50:02;;;;;;;12.70;6.10;;;;;;;12.63;90.43;97325.55;109071;1257;60042;-28
2023/11/04 03:52:30;;;;;;;14.70;5.90;;;;;;;12.52;90.33;97326.61;109016;1257;58824;-28
2023/11/04 03:54:58;;;;;;;8.90;6.70;;;;;;;12.25;91.36;97313.91;109030;1257;73023;-28
2023/11/04 03:57:26;;;;;;;8.60;4.50;;;;;;;11.99;93.46;97297.72;109053;1256;74319;-28
2023/11/04 03:59:54;;;;;;;11.50;6.90;;;;;;;12.28;93.61;97292.22;109037;1258;71977;-28
2023/11/04 04:02:21;;;;;;;11.00;8.00;;;;;;;12.54;91.77;97293.71;109002;1257;58886;-28
2023/11/04 04:04:49;;;;;;;15.20;8.90;;;;;;;12.48;91.41;97302.41;109043;1257;60190;-28
2023/11/04 04:07:17;;;;;;;10.00;7.00;;;;;;;12.27;91.83;97304.69;109014;1257;73060;-28
2023/11/04 04:09:44;;;;;;;9.80;4.50;;;;;;;12.00;92.89;97301.75;108933;1257;74358;-28
2023/11/04 04:12:12;;;;;;;5.90;4.60;;;;;;;12.23;92.48;97300.94;108986;1257;71434;-28
2023/11/04 04:14:44;;;;;;;10.00;5.20;;;;;;;12.45;90.55;97301.63;108965;1261;60075;-28
2023/11/04 04:17:12;;;;;;;11.00;5.50;;;;;;;12.33;90.23;97310.77;108958;1257;59657;-28
2023/11/04 04:19:40;;;;;;;12.50;6.10;;;;;;;12.05;90.95;97323.34;108989;1257;73110;-28
2023/11/04 04:22:08;;;;;;;8.10;4.20;;;;;;;11.75;92.46;97333.68;108986;1257;72789;-28
2023/11/04 04:24:39;;;;;;;8.00;4.60;;;;;;;11.98;92.06;97335.31;108945;1257;71378;-28
2023/11/04 04:27:06;;;;;;;13.20;6.00;;;;;;;12.26;90.21;97338.46;109001;1257;58792;-28
2023/11/04 04:29:34;;;;;;;11.40;6.40;;;;;;;12.18;90.07;97357.64;108999;1257;60008;-28
2023/11/04 04:32:02;;;;;;;9.00;6.20;;;;;;;11.90;91.52;97360.33;109002;1259;71767;-28
2023/11/04 04:34:29;;;;;;;8.80;5.50;;;;;;;11.62;92.76;97350.74;108979;1257;72023;-28
2023/11/04 04:36:58;;;;;;;8.70;4.30;;;;;;;11.46;93.82;97356.20;108974;1257;72652;-28
2023/11/04 04:39:26;;;;;;;7.40;5.20;;;;;;;11.76;92.30;97361.25;108972;1257;60077;-28
2023/11/04 04:41:54;;;;;;;10.00;5.80;;;;;;;11.83;91.46;97363.06;109007;1257;59992;-28
2023/11/04 04:44:21;;;;;;;7.70;5.60;;;;;;;11.66;91.87;97354.17;109019;1257;72995;-28
2023/11/04 04:46:49;;;;;;;18.00;7.00;;;;;;;11.43;93.45;97360.48;109006;1257;74330;-28
2023/11/04 04:49:16;;;;;;;8.30;4.50;;;;;;;11.27;95.28;97361.05;108970;1257;70613;-28
2023/11/04 04:51:44;;;;;;;10.30;4.20;;;;;;;11.64;95.03;97362.17;108995;1257;58858;-28
2023/11/04 04:54:12;;;;;;;7.90;5.40;;;;;;;12.05;92.52;97359.59;108969;1257;59995;-28
2023/11/04 04:56:40;;;;;;;11.70;5.70;;;;;;;12.02;91.97;97358.27;109000;1259;72738;-28
2023/11/04 04:59:08;;;;;;;11.10;6.00;;;;;;;11.81;92.31;97351.59;109001;1259;73060;-28
2023/11/04 05:01:35;;;;;;;8.30;6.40;;;;;;;11.56;93.77;97354.08;108971;1259;71879;-28
2023/11/04 05:04:03;;;;;;;9.30;4.80;;;;;;;11.37;95.71;97358.70;108988;1258;60389;-28
2023/11/04 05:06:31;;;;;;;9.60;5.60;;;;;;;11.75;95.15;97359.71;108959;1258;60009;-28
2023/11/04 05:08:59;;;;;;;8.90;5.50;;;;;;;12.05;93.60;97356.23;109028;1259;73175;-28
2023/11/04 05:11:27;;;;;;;10.60;6.30;;;;;;;12.00;93.44;97355.14;109042;1258;73533;-28
2023/11/04 05:13:55;;;;;;;11.50;6.60;;;;;;;11.83;93.95;97351.35;109019;1258;71444;-28
2023/11/04 05:16:22;;;;;;;10.00;4.70;;;;;;;11.65;94.92;97353.95;109027;1258;61665;-28
2023/11/04 05:18:51;;;;;;;9.90;5.70;;;;;;;11.93;94.70;97353.36;109030;1258;58795;-28
2023/11/04 05:21:22;;;;;;;10.60;5.50;;;;;;;12.22;92.55;97347.83;109011;1258;72993;-28
2023/11/04 05:23:50;;;;;;;10.20;6.80;;;;;;;12.13;92.23;97353.88;108978;1259;74352;-28
2023/11/04 05:26:18;;;;;;;11.90;6.20;;;;;;;11.91;92.85;97352.17;109021;1257;72724;-28
2023/11/04 05:28:47;;;;;;;10.80;5.00;;;;;;;11.71;94.18;97355.55;108995;1258;59276;-26
2023/11/04 05:31:14;;;;;;;9.00;5.00;;;;;;;11.93;94.16;97350.95;109083;1258;60057;-26
2023/11/04 05:33:42;;;;;;;10.30;6.40;;;;;;;12.25;91.99;97350.05;109035;1258;73047;-26
2023/11/04 05:36:10;;;;;;;9.80;5.50;;;;;;;12.24;91.49;97351.46;109009;1257;71936;-26
2023/11/04 05:38:38;;;;;;;14.30;6.30;;;;;;;12.02;92.02;97352.52;109039;1258;71425;-26
2023/11/04 05:41:06;;;;;;;12.50;7.30;;;;;;;11.75;93.59;97352.19;108945;1259;58901;-26
2023/11/04 05:43:35;;;;;;;9.20;5.40;;;;;;;11.70;95.38;97357.02;109057;1257;59996;-27
2023/11/04 05:46:06;;;;;;;12.80;6.20;;;;;;;12.17;93.95;97357.78;109009;1257;71829;-28
2023/11/04 05:48:35;;;;;;;10.60;6.80;;;;;;;12.32;92.55;97358.30;108902;1259;74289;-28
2023/11/04 05:51:03;;;;;;;13.80;7.10;;;;;;;12.21;92.66;97361.22;108933;1259;71465;-28
2023/11/04 05:53:31;;;;;;;18.80;8.70;;;;;;;12.00;93.91;97365.15;108924;1259;58851;-29
2023/11/04 05:55:59;;;;;;;10.70;5.90;;;;;;;11.85;95.47;97365.95;109033;1258;60067;-28
2023/11/04 05:58:26;;;;;;;14.10;6.40;;;;;;;12.20;94.78;97368.06;109044;1258;72843;-28
2023/11/04 06:00:54;;;;;;;15.90;6.70;;;;;;;12.39;93.08;97361.88;109021;1258;72157;-28
2023/11/04 06:03:22;;;;;;;12.60;7.10;;;;;;;12.30;93.70;97358.98;108975;1259;71475;-28
2023/11/04 06:05:51;;;;;;;17.60;7.90;;;;;;;12.13;94.64;97364.18;108972;1259;58839;-28
2023/11/04 06:08:19;;;;;;;13.70;6.80;;;;;;;12.11;95.84;97371.01;109053;1261;60076;-28
2023/11/04 06:10:47;;;;;;;15.90;8.00;;;;;;;12.52;94.17;97365.80;109198;1256;73061;-28
2023/11/04 06:13:14;;;;;;;14.50;8.20;;;;;;;12.63;92.79;97366.73;109234;1254;74320;-28
2023/11/04 06:15:42;;;;;;;15.70;9.30;;;;;;;12.52;93.18;97368.19;109115;1256;72471;-28
2023/11/04 06:18:10;;;;;;;18.30;7.90;;;;;;;12.28;94.87;97368.52;109082;1256;60090;-28
2023/11/04 06:20:38;;;;;;;17.30;8.20;;;;;;;12.37;95.79;97380.64;109149;1254;58835;-28
2023/11/04 06:23:05;;;;;;;15.90;8.50;;;;;;;12.70;93.74;97385.64;109249;1256;71846;-28
2023/11/04 06:25:33;;;;;;;15.00;8.70;;;;;;;12.74;93.12;97392.33;109211;1255;74499;-28
2023/11/04 06:28:01;;;;;;;19.70;10.10;;;;;;;12.59;93.90;97386.52;109185;1256;72674;-28
2023/11/04 06:30:29;;;;;;;12.20;7.10;;;;;;;12.47;94.68;97386.21;109196;1255;60670;-28
2023/11/04 06:32:57;;;;;;;13.70;7.30;;;;;;;12.89;94.53;97394.91;109189;1256;59069;-28
2023/11/04 06:35:25;;;;;;;17.40;8.40;;;;;;;13.38;92.21;97397.99;109239;1256;71817;-28
2023/11/04 06:37:52;;;;;;;14.20;8.40;;;;;;;13.46;91.03;97397.89;109223;1256;74307;-28
2023/11/04 06:40:20;;;;;;;19.00;9.90;;;;;;;13.32;90.87;97396.23;109205;1255;71522;-28
2023/11/04 06:42:48;;;;;;;21.30;11.00;;;;;;;13.11;91.69;97395.20;109183;1256;58808;-28
2023/11/04 06:45:15;;;;;;;22.40;8.20;;;;;;;13.03;92.92;97394.66;109232;1256;60024;-28
2023/11/04 06:47:44;;;;;;;18.40;8.50;;;;;;;13.46;91.74;97394.58;109222;1254;71793;-28
2023/11/04 06:50:12;;;;;;;20.00;9.20;;;;;;;13.69;90.23;97400.36;109203;1255;74333;-28
2023/11/04 06:52:40;;;;;;;29.80;9.70;;;;;;;13.61;90.19;97399.11;109114;1255;71705;-28
2023/11/04 06:55:08;;;;;;;18.20;9.60;;;;;;;13.37;91.52;97402.11;109200;1255;60073;-28
2023/11/04 06:57:35;;;;;;;13.00;7.30;;;;;;;13.17;93.18;97404.58;109188;1255;59848;-28
2023/11/04 07:00:04;;;;;;;19.00;9.10;;;;;;;13.53;92.63;97412.53;109219;1255;71816;-28
2023/11/04 07:02:32;;;;;;;18.70;9.80;;;;;;;13.85;90.18;97422.38;109092;1256;74330;-28
2023/11/04 07:05:01;;;;;;;16.40;9.00;;;;;;;13.77;90.23;97423.09;109104;1256;72469;-28
2023/11/04 07:07:29;;;;;;;18.80;9.50;;;;;;;13.58;90.81;97427.68;109165;1256;60233;-28
2023/11/04 07:09:57;;;;;;;17.40;9.20;;;;;;;13.40;92.22;97431.19;109102;1258;60085;-28
2023/11/04 07:12:25;;;;;;;14.10;7.70;;;;;;;13.48;93.12;97425.35;109080;1255;73870;-28
2023/11/04 07:14:53;;;;;;;21.70;10.30;;;;;;;13.83;91.42;97419.13;109122;1255;74506;-28
2023/11/04 07:17:20;;;;;;;16.20;9.40;;;;;;;13.85;90.71;97406.63;109174;1256;72810;-28
2023/11/04 07:19:48;;;;;;;16.80;9.70;;;;;;;13.72;91.08;97404.50;109164;1255;60035;-28
2023/11/04 07:22:19;;;;;;;19.90;10.30;;;;;;;13.56;92.23;97406.26;109169;1255;58720;-28
2023/11/04 07:24:47;;;;;;;11.40;7.50;;;;;;;13.50;93.13;97403.13;109189;1256;72578;-28
2023/11/04 07:27:15;;;;;;;14.50;7.70;;;;;;;14.00;91.83;97408.66;109095;1258;76551;-28
2023/11/04 07:29:43;;;;;;;16.70;8.40;;;;;;;14.42;89.52;97420.54;109138;1256;71446;-28
2023/11/04 07:32:10;;;;;;;17.50;9.00;;;;;;;14.40;88.90;97437.73;109138;1256;60653;-28
2023/11/04 07:34:40;;;;;;;17.80;10.10;;;;;;;14.25;89.16;97446.53;109180;1257;59427;-27
2023/11/04 07:37:08;;;;;;;18.50;10.80;;;;;;;14.01;90.71;97447.28;109113;1256;74092;-27
2023/11/04 07:39:38;;;;;;;14.50;7.50;;;;;;;13.99;91.58;97439.83;109127;1256;74245;-27
2023/11/04 07:42:07;;;;;;;17.20;9.00;;;;;;;14.37;89.77;97437.49;109073;1256;71436;-28
2023/11/04 07:44:35;;;;;;;16.10;9.40;;;;;;;14.59;88.80;97424.56;109129;1256;58797;-28
2023/11/04 07:47:03;;;;;;;19.70;10.20;;;;;;;14.60;88.44;97426.48;109009;1256;58776;-28
2023/11/04 07:49:31;;;;;;;14.00;8.60;;;;;;;14.56;88.74;97433.25;109184;1256;72602;-27
2023/11/04 07:51:58;;;;;;;14.70;7.70;;;;;;;14.43;87.99;97430.73;109104;1256;74429;-27
2023/11/04 07:54:26;;;;;;;15.80;7.80;;;;;;;14.78;87.74;97432.13;109130;1256;71669;-28
2023/11/04 07:56:54;;;;;;;19.70;8.90;;;;;;;15.18;86.08;97433.82;109071;1256;58894;-28
2023/11/04 07:59:22;;;;;;;21.40;10.00;;;;;;;15.15;85.01;97427.47;109182;1256;60035;-28
2023/11/04 08:01:49;;;;;;;15.10;9.30;;;;;;;14.90;85.57;97409.56;109124;1256;73811;-28
2023/11/04 08:04:17;;;;;;;15.50;9.70;;;;;;;14.61;87.17;97400.33;109127;1256;74369;-28
2023/11/04 08:06:45;;;;;;;15.80;7.90;;;;;;;14.44;88.18;97388.13;109093;1256;71437;-28
2023/11/04 08:09:13;;;;;;;17.30;10.30;;;;;;;14.78;87.71;97399.16;109067;1256;58889;-28
2023/11/04 08:11:41;;;;;;;14.50;8.90;;;;;;;15.05;85.88;97409.59;109116;1256;60091;-28
2023/11/04 08:14:08;;;;;;;11.00;8.30;;;;;;;14.95;85.90;97421.04;109154;1256;72769;-28
2023/11/04 08:16:36;;;;;;;18.10;10.60;;;;;;;14.72;86.63;97430.30;109077;1256;73071;-27
2023/11/04 08:19:05;;;;;;;19.40;10.40;;;;;;;14.52;87.36;97432.90;109103;1256;71446;-27
2023/11/04 08:21:33;;;;;;;11.70;6.50;;;;;;;14.52;88.19;97431.16;108956;1257;61753;-28
2023/11/04 08:24:01;;;;;;;10.60;6.80;;;;;;;14.95;86.05;97433.61;109123;1256;58772;-28
2023/11/04 08:26:29;;;;;;;12.50;8.10;;;;;;;15.07;85.19;97438.63;109093;1256;72560;-28
2023/11/04 08:28:57;;;;;;;15.80;7.70;;;;;;;14.99;85.34;97441.94;109155;1256;72595;-28
2023/11/04 08:31:25;;;;;;;18.00;9.20;;;;;;;14.79;85.72;97448.14;109035;1256;71478;-28
2023/11/04 08:33:52;;;;;;;12.30;6.90;;;;;;;14.64;86.81;97442.89;109135;1256;61544;-28
2023/11/04 08:36:23;;;;;;;10.00;7.10;;;;;;;15.09;87.21;97439.02;109157;1256;58837;-28
2023/11/04 08:38:50;;;;;;;12.40;6.90;;;;;;;15.55;84.78;97437.15;109165;1256;73827;-28
2023/11/04 08:41:19;;;;;;;14.00;8.10;;;;;;;15.58;83.46;97438.61;109068;1256;73113;-28
2023/11/04 08:43:47;;;;;;;17.00;8.50;;;;;;;15.44;83.22;97439.45;109049;1256;72750;-28
2023/11/04 08:46:18;;;;;;;15.10;8.60;;;;;;;15.23;83.36;97421.45;109127;1256;58884;-29
2023/11/04 08:48:46;;;;;;;13.50;6.40;;;;;;;15.03;83.78;97409.83;109072;1256;60092;-28
2023/11/04 08:51:14;;;;;;;9.10;6.50;;;;;;;15.33;83.97;97400.76;109147;1258;73851;-28
2023/11/04 08:53:42;;;;;;;13.00;8.00;;;;;;;15.66;82.01;97388.91;109054;1256;74331;-28
2023/11/04 08:56:10;;;;;;;11.60;7.90;;;;;;;15.70;81.67;97393.11;109121;1256;72330;-26
2023/11/04 08:58:38;;;;;;;13.20;7.40;;;;;;;15.57;81.61;97399.83;109060;1256;58844;-26
2023/11/04 09:01:06;;;;;;;12.10;7.90;;;;;;;15.39;82.21;97411.36;109125;1256;60021;-26
2023/11/04 09:03:34;;;;;;;13.70;8.30;;;;;;;15.19;82.49;97411.35;109104;1256;72576;-28
2023/11/04 09:06:14;;;;;;;10.30;4.50;;;;;;;15.09;83.18;97402.80;109059;1256;74333;-27
2023/11/04 09:08:43;;;;;;;9.80;5.90;;;;;;;15.68;82.57;97402.33;109063;1256;71490;-27
2023/11/04 09:11:11;;;;;;;14.40;6.60;;;;;;;16.24;80.06;97393.58;109021;1256;58952;-27
2023/11/04 09:13:38;;;;;;;10.50;6.60;;;;;;;16.26;78.84;97393.33;109037;1260;59202;-28
2023/11/04 09:16:09;;;;;;;10.50;7.40;;;;;;;16.04;78.77;97388.23;109035;1256;72600;-27
2023/11/04 09:18:40;;;;;;;11.50;6.90;;;;;;;15.85;79.72;97393.05;109109;1256;73147;-27
2023/11/04 09:21:08;;;;;;;10.50;6.80;;;;;;;15.67;80.34;97397.76;108990;1256;71716;-27
2023/11/04 09:23:36;;;;;;;15.50;8.00;;;;;;;15.47;80.81;97390.88;109031;1256;58822;-28
2023/11/04 09:26:04;;;;;;;11.60;5.20;;;;;;;15.34;81.70;97379.95;109096;1256;58772;-28
2023/11/04 09:28:32;;;;;;;9.80;5.90;;;;;;;15.78;81.02;97367.27;108979;1256;73816;-27
2023/11/04 09:31:01;;;;;;;10.60;6.50;;;;;;;16.22;78.85;97353.42;109123;1256;74313;-27
2023/11/04 09:33:30;;;;;;;10.90;6.50;;;;;;;16.19;77.95;97346.06;108996;1256;72670;-27
2023/11/04 09:35:59;;;;;;;10.90;6.10;;;;;;;16.01;78.49;97347.77;109082;1256;58933;-27
2023/11/04 09:38:27;;;;;;;10.70;6.50;;;;;;;15.75;79.07;97347.76;109066;1256;58926;-28
2023/11/04 09:40:56;;;;;;;10.50;6.90;;;;;;;15.60;80.17;97346.77;109050;1256;73807;-27
2023/11/04 09:43:23;;;;;;;10.30;7.20;;;;;;;15.43;80.58;97348.75;109079;1256;74322;-27
2023/11/04 09:45:52;;;;;;;9.30;4.90;;;;;;;15.39;81.47;97349.06;109026;1256;72719;-27
2023/11/04 09:48:20;;;;;;;11.50;5.40;;;;;;;15.94;80.38;97345.80;109032;1256;59283;-27
2023/11/04 09:50:49;;;;;;;10.40;6.50;;;;;;;16.32;78.20;97342.77;109117;1256;58770;-27
2023/11/04 09:53:26;;;;;;;11.40;7.30;;;;;;;16.20;77.47;97334.19;108976;1256;72595;-27
2023/11/04 09:55:54;;;;;;;17.60;10.60;;;;;;;15.74;79.38;97329.50;109037;1256;74457;-27
2023/11/04 09:58:22;;;;;;;21.50;14.60;;;;;;;15.20;81.59;97329.48;109063;1256;71395;-27
2023/11/04 10:00:51;;;;;;;13.20;9.90;;;;;;;15.06;83.42;97325.60;109023;1256;60002;-27
2023/11/04 10:03:21;;;;;;;17.00;9.80;;;;;;;15.05;82.87;97321.40;109053;1256;61190;-27
2023/11/04 10:05:51;;;;;;;11.00;6.50;;;;;;;15.17;83.31;97316.72;108979;1256;73863;-27
2023/11/04 10:08:21;;;;;;;9.10;6.20;;;;;;;15.80;81.36;97301.49;109044;1256;72949;-27
2023/11/04 10:10:50;;;;;;;9.10;6.90;;;;;;;16.39;77.56;97299.36;108997;1256;72676;-27
2023/11/04 10:13:21;;;;;;;10.60;6.40;;;;;;;16.48;76.52;97291.36;109016;1256;60330;-27
2023/11/04 10:15:51;;;;;;;13.30;7.00;;;;;;;16.36;76.58;97284.02;109043;1256;59968;-26
2023/11/04 10:18:21;;;;;;;10.70;7.10;;;;;;;16.19;76.75;97283.30;108970;1256;74581;-27
2023/11/04 10:20:52;;;;;;;9.30;6.40;;;;;;;15.99;77.18;97287.23;109013;1256;75387;-27
2023/11/04 10:23:23;;;;;;;15.60;7.90;;;;;;;15.84;78.04;97290.48;108974;1257;74895;-27
2023/11/04 10:25:52;;;;;;;15.20;9.90;;;;;;;15.66;79.87;97284.05;109004;1256;58799;-26
2023/11/04 10:28:24;;;;;;;11.80;6.40;;;;;;;15.58;80.72;97280.45;109035;1256;60026;-27
2023/11/04 10:31:01;;;;;;;14.70;7.80;;;;;;;16.11;78.83;97287.58;108954;1255;74573;-25
2023/11/04 10:33:40;;;;;;;11.60;7.60;;;;;;;16.65;76.29;97290.89;109050;1256;74381;-25
2023/11/04 10:36:11;;;;;;;12.70;8.00;;;;;;;16.58;74.90;97290.48;109006;1256;73748;-25
2023/11/04 10:38:44;;;;;;;10.00;6.50;;;;;;;16.48;75.21;97275.06;109023;1256;60253;-25
2023/11/04 10:41:14;;;;;;;9.40;6.10;;;;;;;16.40;74.30;97269.63;109040;1256;62321;-25
2023/11/04 10:43:51;;;;;;;10.50;5.40;;;;;;;16.09;74.29;97268.48;109019;1256;75117;-25
2023/11/04 10:46:42;;;;;;;12.50;5.60;;;;;;;15.98;74.80;97265.78;108922;1256;74611;-27
2023/11/04 10:49:24;;;;;;;9.50;5.00;;;;;;;15.80;75.36;97265.70;108954;1256;72700;-27
2023/11/04 10:52:24;;;;;;;8.50;5.80;;;;;;;15.69;75.43;97260.15;108944;1256;62009;-27
2023/11/04 10:55:16;;;;;;;7.70;3.40;;;;;;;15.70;76.56;97252.00;108976;1256;59503;-27
2023/11/04 10:57:51;;;;;;;6.80;5.20;;;;;;;16.35;72.46;97244.34;109026;1256;72639;-27
2023/11/04 11:00:23;;;;;;;8.90;5.40;;;;;;;16.77;71.62;97236.70;108974;1256;75000;-27
2023/11/04 11:10:53;;;;;;;9.70;5.70;;;;;;;15.91;73.00;97205.80;102584;1295;600081;-25
2023/11/04 11:13:22;;;;;;;7.80;5.50;;;;;;;15.66;73.78;97207.36;104826;1267;61136;-25
2023/11/04 11:15:50;;;;;;;10.20;7.40;;;;;;;15.53;74.54;97215.52;104841;1273;62070;-25
2023/11/04 11:18:30;;;;;;;12.70;7.40;;;;;;;15.37;74.76;97210.31;104720;1273;72256;-25
2023/11/04 11:28:39;;;;;;;8.00;5.20;;;;;;;15.92;72.31;97200.73;102524;1298;599904;-25
2023/11/04 11:31:11;;;;;;;7.80;5.90;;;;;;;15.63;72.99;97190.54;104832;1266;61826;-25
2023/11/04 11:33:43;;;;;;;10.10;6.90;;;;;;;15.33;73.93;97187.91;104793;1272;61590;-24
2023/11/04 11:36:13;;;;;;;9.10;5.30;;;;;;;15.13;74.79;97181.16;104803;1270;70976;-26
2023/11/04 11:38:45;;;;;;;9.70;6.00;;;;;;;14.95;75.62;97174.77;104773;1273;74381;-26
2023/11/04 11:41:15;;;;;;;5.50;4.00;;;;;;;14.72;76.93;97180.44;102812;1264;3234142;-27
2023/11/04 11:43:43;;;;;;;7.50;5.00;;;;;;;15.14;76.31;97182.61;105266;1260;61198;-27
2023/11/04 11:46:11;;;;;;;10.60;5.50;;;;;;;15.43;74.81;97182.95;105327;1258;61193;-25
2023/11/04 11:48:41;;;;;;;9.50;5.60;;;;;;;15.54;74.06;97184.89;105500;1262;72170;-26
2023/11/04 11:51:11;;;;;;;8.40;6.10;;;;;;;15.41;74.22;97196.47;105271;1258;74346;-26
2023/11/04 11:53:46;;;;;;;10.20;6.10;;;;;;;15.28;74.60;97201.71;105251;1265;74244;-26
2023/11/04 11:56:14;;;;;;;8.50;5.80;;;;;;;15.08;75.28;97206.33;105530;1257;62864;-25
2023/11/04 12:06:22;;;;;;;6.40;3.90;;;;;;;14.70;78.43;97220.11;102526;1292;600377;-25
2023/11/04 12:08:50;;;;;;;8.40;5.40;;;;;;;15.30;76.64;97212.08;104850;1272;61177;-24
2023/11/04 12:11:18;;;;;;;9.40;5.40;;;;;;;15.75;74.11;97207.11;104780;1272;61159;-25
2023/11/04 12:13:46;;;;;;;8.40;5.80;;;;;;;15.59;74.53;97201.75;104720;1267;71684;-25
2023/11/04 12:16:14;;;;;;;23.70;12.80;;;;;;;15.16;76.23;97200.09;104709;1275;76205;-25
2023/11/04 12:18:43;;;;;;;21.10;11.20;;;;;;;14.93;77.50;97191.38;104832;1272;73459;-25
2023/11/04 12:21:11;;;;;;;15.20;8.80;;;;;;;14.69;78.72;97189.48;102535;1270;61179;-26
2023/11/04 12:23:39;;;;;;;12.10;8.30;;;;;;;14.30;80.79;97187.39;104985;1269;61175;-26
2023/11/04 12:26:07;;;;;;;23.30;14.20;;;;;;;14.06;82.49;97177.17;104756;1270;72038;-26
2023/11/04 12:28:39;;;;;;;98.40;53.10;;;;;;;14.35;81.87;97173.52;104910;1269;74318;-26
2023/11/04 12:31:07;;;;;;;79.60;45.90;;;;;;;14.85;79.39;97172.97;105027;1269;71418;-26
2023/11/04 12:33:36;;;;;;;229.30;127.60;;;;;;;14.81;79.34;97169.46;104971;1269;61150;-26
2023/11/04 12:36:09;;;;;;;51.70;29.40;;;;;;;14.63;80.81;97168.46;104813;1270;61188;-26
2023/11/04 12:38:36;;;;;;;351.40;186.30;;;;;;;14.61;81.32;97166.94;105024;1264;76008;-26
2023/11/04 12:41:09;;;;;;;41.80;26.40;;;;;;;14.44;82.81;97166.30;104986;1269;76278;-26
2023/11/04 12:43:41;;;;;;;24.00;16.00;;;;;;;14.68;82.53;97164.70;104988;1269;74406;-26
2023/11/04 12:46:10;;;;;;;23.40;16.10;;;;;;;14.95;80.46;97154.34;104967;1269;61200;-26
2023/11/04 12:48:38;;;;;;;40.50;27.70;;;;;;;14.94;81.72;97144.25;105024;1266;61777;-26
2023/11/04 12:51:07;;;;;;;69.90;43.70;;;;;;;14.43;83.66;97144.20;104889;1269;74799;-26
2023/11/04 12:53:37;;;;;;;22.70;16.90;;;;;;;14.16;86.20;97144.39;104807;1269;77173;-26
2023/11/04 12:56:06;;;;;;;13.90;8.90;;;;;;;14.14;87.20;97141.18;104982;1276;74411;-26